createdAt,value
2022-09-24T00:01:30.171Z,101285.63
2022-09-24T00:04:03.017Z,101290.97
2022-09-24T00:06:31.309Z,101298.56
2022-09-24T00:08:58.171Z,101279.63
2022-09-24T00:11:27.613Z,101293.50
2022-09-24T00:13:56.263Z,101287.63
2022-09-24T00:16:26.218Z,101295.22
2022-09-24T00:18:54.223Z,101275.22
2022-09-24T00:21:24.181Z,101282.09
2022-09-24T00:23:53.690Z,101282.56
2022-09-24T00:26:40.054Z,101275.69
2022-09-24T00:29:08.153Z,101278.38
2022-09-24T00:31:35.526Z,101281.13
2022-09-24T00:34:02.943Z,101294.38
2022-09-24T00:36:29.618Z,101269.63
2022-09-24T00:38:58.598Z,101294.72
2022-09-24T00:41:31.361Z,101304.41
2022-09-24T00:43:59.141Z,101261.97
2022-09-24T00:46:37.247Z,101257.06
2022-09-24T00:49:20.357Z,101297.94
2022-09-24T00:51:50.391Z,101303.44
2022-09-24T00:54:24.289Z,101295.06
2022-09-24T00:56:52.588Z,101293.06
2022-09-24T00:59:24.014Z,101316.41
2022-09-24T01:01:54.055Z,101296.88
2022-09-24T01:04:21.883Z,101313.75
2022-09-24T01:06:50.009Z,101318.09
2022-09-24T01:09:19.166Z,101303.50
2022-09-24T01:12:07.530Z,101320.66
2022-09-24T01:14:43.777Z,101311.69
2022-09-24T01:17:30.779Z,101315.25
2022-09-24T01:20:16.408Z,101317.19
2022-09-24T01:22:55.354Z,101316.81
2022-09-24T01:25:31.243Z,101319.28
2022-09-24T01:28:19.893Z,101322.03
2022-09-24T01:30:51.233Z,101312.22
2022-09-24T01:33:22.827Z,101312.91
2022-09-24T01:35:55.377Z,101308.66
2022-09-24T01:38:26.281Z,101308.66
2022-09-24T01:40:55.706Z,101318.38
2022-09-24T01:43:25.719Z,101316.72
2022-09-24T01:45:53.494Z,101308.16
2022-09-24T01:48:22.053Z,101312.53
2022-09-24T01:51:02.732Z,101278.41
2022-09-24T01:53:40.530Z,101302.47
2022-09-24T01:56:16.142Z,101317.38
2022-09-24T01:58:51.907Z,101300.44
2022-09-24T02:01:24.532Z,101322.91
2022-09-24T02:04:06.894Z,101311.88
2022-09-24T02:06:38.899Z,101308.28
2022-09-24T02:09:06.229Z,101282.66
2022-09-24T02:11:37.320Z,101279.25
2022-09-24T02:14:09.634Z,101268.88
2022-09-24T02:16:41.951Z,101304.84
2022-09-24T02:19:25.263Z,101271.53
2022-09-24T02:21:52.773Z,101315.28
2022-09-24T02:24:50.574Z,101321.00
2022-09-24T02:27:18.706Z,101308.72
2022-09-24T02:29:46.307Z,101311.59
2022-09-24T02:32:18.438Z,101299.47
2022-09-24T02:34:54.005Z,101309.09
2022-09-24T02:37:23.975Z,101313.31
2022-09-24T02:39:51.299Z,101329.09
2022-09-24T02:42:19.781Z,101313.94
2022-09-24T02:44:47.647Z,101332.16
2022-09-24T02:47:14.674Z,101332.09
2022-09-24T02:49:41.303Z,101316.91
2022-09-24T02:52:08.029Z,101331.78
2022-09-24T02:54:34.920Z,101312.38
2022-09-24T02:57:01.544Z,101342.56
2022-09-24T02:59:28.272Z,101342.69
2022-09-24T03:01:55.276Z,101342.81
2022-09-24T03:04:21.979Z,101352.56
2022-09-24T03:06:48.866Z,101365.88
2022-09-24T03:09:15.668Z,101286.50
2022-09-24T03:11:42.383Z,101332.00
2022-09-24T03:14:09.216Z,101323.81
2022-09-24T03:16:35.969Z,101359.53
2022-09-24T03:19:03.022Z,101334.66
2022-09-24T03:21:29.868Z,101346.47
2022-09-24T03:23:56.538Z,101350.56
2022-09-24T03:26:23.454Z,101351.97
2022-09-24T03:28:50.137Z,101335.84
2022-09-24T03:31:17.067Z,101353.72
2022-09-24T03:33:46.826Z,101369.94
2022-09-24T03:36:25.935Z,101375.63
2022-09-24T03:38:56.688Z,101365.91
2022-09-24T03:41:26.079Z,101360.38
2022-09-24T03:43:52.902Z,101357.41
2022-09-24T03:46:19.655Z,101366.88
2022-09-24T03:48:47.515Z,101364.59
2022-09-24T03:51:18.858Z,101352.69
2022-09-24T03:53:46.209Z,101346.63
2022-09-24T03:56:13.537Z,101359.28
2022-09-24T03:58:42.030Z,101376.72
2022-09-24T04:01:10.776Z,101375.22
2022-09-24T04:03:37.814Z,101366.41
2022-09-24T04:06:05.290Z,101373.91
2022-09-24T04:08:32.493Z,101380.44
2022-09-24T04:10:59.500Z,101371.03
2022-09-24T04:13:26.221Z,101382.94
2022-09-24T04:15:54.022Z,101368.72
2022-09-24T04:18:21.724Z,101359.84
2022-09-24T04:20:48.662Z,101376.16
2022-09-24T04:23:15.633Z,101341.78
2022-09-24T04:25:42.307Z,101371.88
2022-09-24T04:28:10.099Z,101339.25
2022-09-24T04:30:38.375Z,101404.63
2022-09-24T04:33:06.164Z,101379.81
2022-09-24T04:35:36.248Z,101387.56
2022-09-24T04:38:04.957Z,101398.59
2022-09-24T04:40:32.631Z,101386.63
2022-09-24T04:42:59.636Z,101397.88
2022-09-24T04:45:26.952Z,101386.94
2022-09-24T04:47:57.363Z,101389.66
2022-09-24T04:50:29.280Z,101412.13
2022-09-24T04:52:56.283Z,101419.19
2022-09-24T04:55:24.205Z,101392.59
2022-09-24T04:57:51.284Z,101429.06
2022-09-24T05:00:21.008Z,101413.53
2022-09-24T05:02:55.650Z,101401.53
2022-09-24T05:05:22.620Z,101420.50
2022-09-24T05:07:49.616Z,101408.06
2022-09-24T05:10:16.336Z,101409.31
2022-09-24T05:12:42.931Z,101419.38
2022-09-24T05:15:10.012Z,101426.88
2022-09-24T05:17:40.304Z,101423.38
2022-09-24T05:20:08.785Z,101404.66
2022-09-24T05:22:36.698Z,101426.13
2022-09-24T05:25:03.900Z,101427.63
2022-09-24T05:27:30.561Z,101429.53
2022-09-24T05:29:57.263Z,101400.28
2022-09-24T05:32:24.024Z,101374.53
2022-09-24T05:34:51.099Z,101415.72
2022-09-24T05:37:18.347Z,101438.59
2022-09-24T05:39:44.998Z,101397.31
2022-09-24T05:42:14.439Z,101449.88
2022-09-24T05:44:45.614Z,101438.94
2022-09-24T05:47:15.892Z,101433.97
2022-09-24T05:49:43.209Z,101434.72
2022-09-24T05:52:10.096Z,101451.97
2022-09-24T05:54:36.726Z,101445.00
2022-09-24T05:57:03.586Z,101434.56
2022-09-24T05:59:30.216Z,101431.84
2022-09-24T06:01:57.027Z,101436.09
2022-09-24T06:04:23.675Z,101425.28
2022-09-24T06:06:50.423Z,101424.00
2022-09-24T06:09:17.117Z,101421.97
2022-09-24T06:11:44.468Z,101402.22
2022-09-24T06:14:11.390Z,101442.97
2022-09-24T06:16:38.213Z,101427.72
2022-09-24T06:19:05.135Z,101448.56
2022-09-24T06:21:31.888Z,101449.50
2022-09-24T06:23:58.575Z,101439.47
2022-09-24T06:26:26.484Z,101408.75
2022-09-24T06:28:53.298Z,101434.88
2022-09-24T06:31:20.501Z,101482.81
2022-09-24T06:33:47.552Z,101430.56
2022-09-24T06:36:14.898Z,101465.81
2022-09-24T06:38:42.150Z,101459.63
2022-09-24T06:41:10.523Z,101434.50
2022-09-24T06:43:37.682Z,101463.25
2022-09-24T06:46:05.285Z,101517.16
2022-09-24T06:48:32.470Z,101508.16
2022-09-24T06:50:59.797Z,101475.59
2022-09-24T06:53:27.474Z,101495.91
2022-09-24T06:55:58.913Z,101527.44
2022-09-24T06:58:26.637Z,101472.81
2022-09-24T07:00:59.098Z,101507.13
2022-09-24T07:03:27.899Z,101529.59
2022-09-24T07:05:55.225Z,101486.41
2022-09-24T07:08:22.727Z,101475.47
2022-09-24T07:10:49.935Z,101491.78
2022-09-24T07:13:16.917Z,101483.97
2022-09-24T07:15:44.771Z,101485.97
2022-09-24T07:18:12.816Z,101488.16
2022-09-24T07:20:40.071Z,101516.81
2022-09-24T07:23:12.854Z,101492.66
2022-09-24T07:25:40.265Z,101524.56
2022-09-24T07:28:09.831Z,101511.41
2022-09-24T07:30:39.792Z,101457.69
2022-09-24T07:33:09.884Z,101520.88
2022-09-24T07:35:40.936Z,101469.69
2022-09-24T07:38:12.529Z,101462.91
2022-09-24T07:40:39.905Z,101472.06
2022-09-24T07:43:12.597Z,101478.47
2022-09-24T07:45:39.618Z,101476.97
2022-09-24T07:48:07.027Z,101532.53
2022-09-24T07:50:39.455Z,101501.84
2022-09-24T07:53:07.057Z,101461.06
2022-09-24T07:55:39.592Z,101506.44
2022-09-24T07:58:12.165Z,101489.31
2022-09-24T08:00:39.319Z,101523.00
2022-09-24T08:03:06.515Z,101540.72
2022-09-24T08:05:33.601Z,101495.59
2022-09-24T08:08:00.575Z,101549.69
2022-09-24T08:10:28.699Z,101519.41
2022-09-24T08:12:57.391Z,101505.06
2022-09-24T08:15:24.217Z,101521.00
2022-09-24T08:17:51.326Z,101480.09
2022-09-24T08:20:18.378Z,101524.88
2022-09-24T08:22:45.337Z,101494.91
2022-09-24T08:25:12.090Z,101510.81
2022-09-24T08:27:38.945Z,101544.44
2022-09-24T08:30:06.781Z,101547.47
2022-09-24T08:32:33.693Z,101553.22
2022-09-24T08:35:00.345Z,101530.88
2022-09-24T08:37:30.227Z,101575.66
2022-09-24T08:39:56.959Z,101576.06
2022-09-24T08:42:41.850Z,101590.53
2022-09-24T08:45:30.092Z,101563.38
2022-09-24T08:48:04.884Z,101581.19
2022-09-24T08:50:35.126Z,101576.28
2022-09-24T08:53:15.971Z,101591.84
2022-09-24T08:55:52.806Z,101585.69
2022-09-24T08:59:01.575Z,101587.44
2022-09-24T09:01:56.832Z,101596.19
2022-09-24T09:04:32.463Z,101591.06
2022-09-24T09:07:18.044Z,101589.69
2022-09-24T09:10:01.300Z,101617.19
2022-09-24T09:12:35.840Z,101619.34
2022-09-24T09:15:12.613Z,101605.72
2022-09-24T09:17:54.916Z,101624.53
2022-09-24T09:20:35.350Z,101620.53
2022-09-24T09:24:00.835Z,101612.78
2022-09-24T09:26:27.538Z,101609.72
2022-09-24T09:29:00.150Z,101636.81
2022-09-24T09:31:38.827Z,101634.19
2022-09-24T09:34:37.835Z,101628.22
2022-09-24T09:37:16.322Z,101644.19
2022-09-24T09:39:53.360Z,101647.38
2022-09-24T09:42:27.615Z,101655.53
2022-09-24T09:44:54.851Z,101627.03
2022-09-24T09:48:12.903Z,101635.06
2022-09-24T09:50:49.616Z,101635.72
2022-09-24T09:53:21.829Z,101655.69
2022-09-24T09:55:56.659Z,101657.34
2022-09-24T09:58:28.980Z,101646.19
2022-09-24T10:01:13.210Z,101652.88
2022-09-24T10:03:52.135Z,101655.88
2022-09-24T10:06:27.313Z,101649.94
2022-09-24T10:08:54.902Z,101629.72
2022-09-24T10:14:11.549Z,101652.72
2022-09-24T10:17:07.427Z,101612.91
2022-09-24T10:19:39.163Z,101610.47
2022-09-24T10:22:21.655Z,101650.56
2022-09-24T10:24:49.716Z,101602.09
2022-09-24T10:27:42.775Z,101654.25
2022-09-24T10:30:34.222Z,101618.03
2022-09-24T10:33:03.714Z,101612.63
2022-09-24T10:35:36.253Z,101634.44
2022-09-24T10:38:16.206Z,101637.19
2022-09-24T10:40:43.053Z,101611.81
2022-09-24T10:43:22.261Z,101608.94
2022-09-24T10:45:58.080Z,101646.78
2022-09-24T10:48:32.883Z,101650.94
2022-09-24T10:51:28.768Z,101609.13
2022-09-24T10:54:29.681Z,101644.94
2022-09-24T10:56:59.546Z,101632.75
2022-09-24T10:59:39.640Z,101648.91
2022-09-24T11:02:29.156Z,101642.53
2022-09-24T11:05:09.131Z,101637.97
2022-09-24T11:08:00.438Z,101635.97
2022-09-24T11:11:03.631Z,101644.50
2022-09-24T11:13:47.919Z,101639.16
2022-09-24T11:16:17.226Z,101662.28
2022-09-24T11:19:00.271Z,101649.78
2022-09-24T11:22:01.151Z,101654.56
2022-09-24T11:24:33.827Z,101659.13
2022-09-24T11:27:25.895Z,101622.44
2022-09-24T11:30:21.816Z,101657.59
2022-09-24T11:33:18.327Z,101626.09
2022-09-24T11:36:25.411Z,101658.38
2022-09-24T11:39:13.855Z,101668.19
2022-09-24T11:41:52.634Z,101663.16
2022-09-24T11:44:45.628Z,101658.28
2022-09-24T11:47:12.188Z,101658.78
2022-09-24T11:50:00.420Z,101659.97
2022-09-24T11:52:41.536Z,101635.50
2022-09-24T11:55:17.200Z,101673.44
2022-09-24T11:57:54.604Z,101667.91
2022-09-24T12:00:22.156Z,101605.19
2022-09-24T12:02:55.809Z,101665.09
2022-09-24T12:05:40.344Z,101666.13
2022-09-24T12:08:27.830Z,101667.06
2022-09-24T12:11:04.315Z,101660.63
2022-09-24T12:13:57.100Z,101659.72
2022-09-24T12:16:29.375Z,101633.97
2022-09-24T12:19:02.942Z,101667.78
2022-09-24T12:21:45.520Z,101648.78
2022-09-24T12:24:19.435Z,101636.09
2022-09-24T12:26:47.744Z,101633.97
2022-09-24T12:29:59.356Z,101609.25
2022-09-24T12:32:57.252Z,101606.25
2022-09-24T12:35:55.210Z,101665.06
2022-09-24T12:38:37.816Z,101665.03
2022-09-24T12:41:28.517Z,101606.72
2022-09-24T12:44:10.430Z,101668.41
2022-09-24T12:46:45.751Z,101647.25
2022-09-24T12:49:26.589Z,101645.91
2022-09-24T12:51:55.659Z,101653.16
2022-09-24T12:54:34.563Z,101642.81
2022-09-24T12:57:15.450Z,101660.59
2022-09-24T13:00:02.225Z,101657.75
2022-09-24T13:02:47.112Z,101653.63
2022-09-24T13:05:23.190Z,101648.13
2022-09-24T13:07:57.816Z,101637.38
2022-09-24T13:10:28.326Z,101654.09
2022-09-24T13:12:56.774Z,101648.81
2022-09-24T13:15:35.284Z,101646.47
2022-09-24T13:18:04.480Z,101672.34
2022-09-24T13:20:32.776Z,101667.94
2022-09-24T13:23:35.441Z,101605.13
2022-09-24T13:26:05.056Z,101672.69
2022-09-24T13:28:58.372Z,101669.56
2022-09-24T13:31:28.205Z,101675.34
2022-09-24T13:34:18.162Z,101672.06
2022-09-24T13:37:11.615Z,101672.00
2022-09-24T13:39:46.391Z,101612.00
2022-09-24T13:42:45.489Z,101660.06
2022-09-24T13:45:18.732Z,101636.16
2022-09-24T13:47:48.419Z,101665.06
2022-09-24T13:50:36.040Z,101653.69
2022-09-24T13:53:12.634Z,101636.34
2022-09-24T13:55:47.490Z,101640.00
2022-09-24T13:58:29.656Z,101659.41
2022-09-24T14:00:59.915Z,101653.84
2022-09-24T14:03:29.918Z,101662.28
2022-09-24T14:05:59.968Z,101632.47
2022-09-24T14:08:30.010Z,101638.88
2022-09-24T14:11:12.955Z,101641.28
2022-09-24T14:13:45.845Z,101649.69
2022-09-24T14:16:17.966Z,101668.97
2022-09-24T14:18:45.799Z,101668.09
2022-09-24T14:21:32.967Z,101669.50
2022-09-24T14:24:20.441Z,101667.16
2022-09-24T14:27:04.696Z,101593.47
2022-09-24T14:29:47.866Z,101666.22
2022-09-24T14:32:24.971Z,101656.00
2022-09-24T14:34:54.899Z,101634.44
2022-09-24T14:37:46.492Z,101610.03
2022-09-24T14:40:16.762Z,101657.88
2022-09-24T14:42:55.434Z,101657.25
2022-09-24T14:45:27.018Z,101611.81
2022-09-24T14:48:28.757Z,101677.16
2022-09-24T14:50:55.592Z,101644.38
2022-09-24T14:53:29.828Z,101611.16
2022-09-24T14:55:57.622Z,101675.50
2022-09-24T14:58:31.258Z,101682.38
2022-09-24T15:01:20.233Z,101667.69
2022-09-24T15:03:50.217Z,101684.00
2022-09-24T15:06:26.418Z,101686.84
2022-09-24T15:09:04.178Z,101658.38
2022-09-24T15:11:36.584Z,101677.53
2022-09-24T15:14:27.861Z,101661.31
2022-09-24T15:16:55.510Z,101659.19
2022-09-24T15:19:25.487Z,101665.34
2022-09-24T15:21:56.860Z,101668.16
2022-09-24T15:24:24.610Z,101647.00
2022-09-24T15:27:03.528Z,101649.25
2022-09-24T15:29:30.652Z,101642.19
2022-09-24T15:31:58.319Z,101637.75
2022-09-24T15:34:25.834Z,101637.16
2022-09-24T15:36:55.515Z,101655.44
2022-09-24T15:39:25.534Z,101654.44
2022-09-24T15:41:52.315Z,101641.94
2022-09-24T15:44:28.327Z,101650.47
2022-09-24T15:46:58.215Z,101650.75
2022-09-24T15:49:25.663Z,101663.75
2022-09-24T15:51:56.011Z,101678.94
2022-09-24T15:54:24.886Z,101676.88
2022-09-24T15:56:52.722Z,101666.13
2022-09-24T15:59:21.598Z,101647.44
2022-09-24T16:01:51.299Z,101633.94
2022-09-24T16:04:18.449Z,101642.03
2022-09-24T16:06:45.252Z,101642.72
2022-09-24T16:09:12.164Z,101661.91
2022-09-24T16:11:39.151Z,101648.38
2022-09-24T16:14:05.856Z,101665.72
2022-09-24T16:16:32.575Z,101671.66
2022-09-24T16:18:59.350Z,101673.97
2022-09-24T16:21:26.002Z,101662.53
2022-09-24T16:23:56.771Z,101674.91
2022-09-24T16:26:24.526Z,101675.72
2022-09-24T16:28:51.738Z,101673.22
2022-09-24T16:31:19.998Z,101688.34
2022-09-24T16:33:47.072Z,101676.03
2022-09-24T16:36:14.039Z,101675.41
2022-09-24T16:38:40.766Z,101690.94
2022-09-24T16:41:08.286Z,101679.72
2022-09-24T16:43:34.949Z,101682.69
2022-09-24T16:46:04.037Z,101694.28
2022-09-24T16:48:31.962Z,101694.75
2022-09-24T16:51:06.339Z,101680.28
2022-09-24T16:53:34.944Z,101689.28
2022-09-24T16:56:10.115Z,101690.94
2022-09-24T16:58:36.867Z,101689.03
2022-09-24T17:01:05.785Z,101688.41
2022-09-24T17:03:32.847Z,101689.72
2022-09-24T17:05:59.763Z,101679.34
2022-09-24T17:08:46.794Z,101686.41
2022-09-24T17:11:13.997Z,101687.63
2022-09-24T17:13:40.833Z,101696.66
2022-09-24T17:16:07.710Z,101689.13
2022-09-24T17:18:34.832Z,101690.09
2022-09-24T17:21:07.666Z,101703.88
2022-09-24T17:23:34.546Z,101692.88
2022-09-24T17:26:13.447Z,101702.09
2022-09-24T17:28:42.259Z,101696.03
2022-09-24T17:31:11.267Z,101665.66
2022-09-24T17:33:43.323Z,101683.66
2022-09-24T17:36:12.679Z,101695.25
2022-09-24T17:38:39.671Z,101654.78
2022-09-24T17:41:09.983Z,101697.16
2022-09-24T17:43:37.375Z,101687.03
2022-09-24T17:46:13.610Z,101701.84
2022-09-24T17:48:44.757Z,101641.06
2022-09-24T17:51:16.266Z,101708.91
2022-09-24T17:53:43.617Z,101691.94
2022-09-24T17:56:12.461Z,101707.28
2022-09-24T17:58:41.399Z,101702.63
2022-09-24T18:01:22.886Z,101669.25
2022-09-24T18:03:57.121Z,101703.56
2022-09-24T18:06:28.117Z,101674.66
2022-09-24T18:08:57.353Z,101708.16
2022-09-24T18:11:26.564Z,101710.97
2022-09-24T18:13:55.671Z,101704.78
2022-09-24T18:16:25.183Z,101702.97
2022-09-24T18:18:52.417Z,101695.69
2022-09-24T18:21:22.231Z,101710.28
2022-09-24T18:23:51.743Z,101682.41
2022-09-24T18:26:32.618Z,101716.34
2022-09-24T18:29:02.270Z,101695.34
2022-09-24T18:31:30.095Z,101708.97
2022-09-24T18:34:05.891Z,101712.47
2022-09-24T18:36:35.159Z,101686.97
2022-09-24T18:39:02.716Z,101707.66
2022-09-24T18:41:30.993Z,101710.44
2022-09-24T18:44:01.588Z,101698.19
2022-09-24T18:46:30.612Z,101709.53
2022-09-24T18:48:58.948Z,101704.97
2022-09-24T18:51:32.147Z,101710.91
2022-09-24T18:54:00.188Z,101719.06
2022-09-24T18:56:27.782Z,101692.34
2022-09-24T18:58:59.175Z,101716.94
2022-09-24T19:01:27.159Z,101711.72
2022-09-24T19:04:00.550Z,101712.91
2022-09-24T19:06:27.964Z,101709.81
2022-09-24T19:08:54.908Z,101707.25
2022-09-24T19:11:22.907Z,101705.56
2022-09-24T19:13:53.928Z,101712.28
2022-09-24T19:16:25.483Z,101714.25
2022-09-24T19:18:53.708Z,101715.19
2022-09-24T19:21:23.207Z,101697.53
2022-09-24T19:23:52.699Z,101711.00
2022-09-24T19:26:22.551Z,101709.88
2022-09-24T19:28:52.999Z,101701.53
2022-09-24T19:31:22.210Z,101704.00
2022-09-24T19:33:50.304Z,101703.22
2022-09-24T19:36:17.479Z,101703.03
2022-09-24T19:38:44.986Z,101689.50
2022-09-24T19:41:13.503Z,101710.69
2022-09-24T19:43:43.496Z,101691.66
2022-09-24T19:46:13.047Z,101710.84
2022-09-24T19:48:41.494Z,101699.59
2022-09-24T19:51:11.983Z,101667.06
2022-09-24T19:53:39.172Z,101640.28
2022-09-24T19:56:07.974Z,101644.44
2022-09-24T19:58:35.194Z,101704.13
2022-09-24T20:01:03.567Z,101685.41
2022-09-24T20:03:32.068Z,101720.66
2022-09-24T20:05:59.089Z,101657.16
2022-09-24T20:08:25.837Z,101690.97
2022-09-24T20:10:52.745Z,101698.94
2022-09-24T20:13:21.265Z,101715.22
2022-09-24T20:15:57.640Z,101722.00
2022-09-24T20:18:24.597Z,101704.16
2022-09-24T20:20:53.721Z,101694.44
2022-09-24T20:23:21.510Z,101694.63
2022-09-24T20:26:11.264Z,101688.28
2022-09-24T20:28:38.801Z,101682.38
2022-09-24T20:31:13.465Z,101685.81
2022-09-24T20:33:42.549Z,101688.75
2022-09-24T20:36:16.497Z,101722.63
2022-09-24T20:38:47.411Z,101710.28
2022-09-24T20:41:16.644Z,101725.25
2022-09-24T20:43:44.451Z,101688.38
2022-09-24T20:46:22.045Z,101693.22
2022-09-24T20:48:48.988Z,101690.91
2022-09-24T20:51:18.342Z,101685.31
2022-09-24T20:53:46.447Z,101689.38
2022-09-24T20:56:14.134Z,101700.41
2022-09-24T20:58:41.567Z,101722.81
2022-09-24T21:01:10.170Z,101705.28
2022-09-24T21:03:44.318Z,101715.72
2022-09-24T21:06:12.603Z,101710.78
2022-09-24T21:08:44.308Z,101702.88
2022-09-24T21:11:22.286Z,101697.19
2022-09-24T21:13:51.690Z,101708.72
2022-09-24T21:16:24.077Z,101695.66
2022-09-24T21:18:54.473Z,101707.97
2022-09-24T21:21:26.455Z,101708.16
2022-09-24T21:23:54.810Z,101712.09
2022-09-24T21:26:32.313Z,101708.72
2022-09-24T21:29:11.546Z,101700.91
2022-09-24T21:31:39.923Z,101699.22
2022-09-24T21:34:07.457Z,101684.34
2022-09-24T21:36:42.884Z,101693.50
2022-09-24T21:39:28.622Z,101679.16
2022-09-24T21:41:59.346Z,101672.75
2022-09-24T21:44:26.368Z,101675.56
2022-09-24T21:46:53.726Z,101652.69
2022-09-24T21:49:20.838Z,101671.50
2022-09-24T21:51:47.637Z,101676.09
2022-09-24T21:54:17.224Z,101664.22
2022-09-24T21:56:45.300Z,101656.75
2022-09-24T21:59:31.137Z,101617.81
2022-09-24T22:01:57.858Z,101659.03
2022-09-24T22:04:24.529Z,101604.09
2022-09-24T22:06:51.416Z,101625.75
2022-09-24T22:09:18.814Z,101592.50
2022-09-24T22:11:45.708Z,101616.66
2022-09-24T22:14:13.248Z,101654.66
2022-09-24T22:16:40.817Z,101629.72
2022-09-24T22:19:09.403Z,101634.75
2022-09-24T22:21:36.827Z,101647.69
2022-09-24T22:24:04.502Z,101650.47
2022-09-24T22:26:31.343Z,101622.44
2022-09-24T22:28:58.787Z,101616.38
2022-09-24T22:31:26.085Z,101606.09
2022-09-24T22:34:11.941Z,101636.91
2022-09-24T22:36:38.815Z,101627.34
2022-09-24T22:39:06.472Z,101644.41
2022-09-24T22:41:40.145Z,101639.13
2022-09-24T22:44:07.508Z,101636.00
2022-09-24T22:46:36.460Z,101634.47
2022-09-24T22:49:04.189Z,101649.88
2022-09-24T22:51:31.129Z,101599.13
2022-09-24T22:54:00.313Z,101647.25
2022-09-24T22:56:27.811Z,101583.59
2022-09-24T22:58:56.991Z,101648.81
2022-09-24T23:01:44.535Z,101594.16
2022-09-24T23:04:15.325Z,101612.53
2022-09-24T23:06:43.742Z,101610.06
2022-09-24T23:09:11.355Z,101640.47
2022-09-24T23:11:38.209Z,101649.69
2022-09-24T23:14:07.960Z,101645.44
2022-09-24T23:16:37.317Z,101635.13
2022-09-24T23:19:08.133Z,101636.47
2022-09-24T23:21:35.322Z,101580.84
2022-09-24T23:24:04.860Z,101568.69
2022-09-24T23:26:32.190Z,101605.75
2022-09-24T23:29:00.750Z,101622.81
2022-09-24T23:31:30.950Z,101620.56
2022-09-24T23:33:59.071Z,101608.66
2022-09-24T23:36:27.759Z,101623.38
2022-09-24T23:38:54.551Z,101576.38
2022-09-24T23:41:21.830Z,101618.09
2022-09-24T23:43:49.015Z,101615.84
2022-09-24T23:46:16.381Z,101568.31
2022-09-24T23:48:43.366Z,101599.84
2022-09-24T23:51:10.595Z,101616.03
2022-09-24T23:53:38.076Z,101606.63
2022-09-24T23:56:06.301Z,101604.94
2022-09-24T23:58:33.197Z,101610.06
